Time;durP1;ratioP1;P1;durP2;ratioP2;P2;SDS_P1;SDS_P2;PMS_P1;PMS_P2;Temp;Humidity;BMP_temperature;BMP_pressure;BME280_temperature;BME280_humidity;BME280_pressure;Samples;Min_cycle;Max_cycle;Signal;HPM_P1;HPM_P2
2022/11/05 15:16:34;;;;;;;9.57;4.07;;;;;;;;;;5126222;27;20451;-68
2022/11/05 15:19:01;;;;;;;6.97;4.43;;;;;;;;;;5138285;27;20047;-68
2022/11/05 15:21:31;;;;;;;5.82;3.95;;;;;;;;;;5142359;27;20035;-68
2022/11/05 15:23:57;;;;;;;8.55;4.50;;;;;;;;;;5139177;27;20632;-69
2022/11/05 15:26:40;;;;;;;13.20;4.45;;;;;;;;;;5140735;27;20102;-67
2022/11/05 15:29:23;;;;;;;10.98;4.10;;;;;;;;;;5135089;27;20038;-69
2022/11/05 15:31:49;;;;;;;9.43;4.60;;;;;;;;;;5137358;27;20141;-69
2022/11/05 15:34:21;;;;;;;9.73;4.22;;;;;;;;;;5140454;27;20062;-68
2022/11/05 15:36:53;;;;;;;7.65;4.03;;;;;;;;;;5131931;27;20042;-67
2022/11/05 15:39:41;;;;;;;8.07;3.88;;;;;;;;;;5138817;27;20042;-67
2022/11/05 15:42:13;;;;;;;11.10;3.97;;;;;;;;;;5118212;27;20043;-67
2022/11/05 15:44:49;;;;;;;8.30;4.45;;;;;;;;;;5137202;27;20042;-67
2022/11/05 15:47:15;;;;;;;13.85;4.13;;;;;;;;;;5136462;27;20092;-67
2022/11/05 15:49:43;;;;;;;11.02;4.72;;;;;;;;;;5139809;27;20035;-67
2022/11/05 15:52:13;;;;;;;9.27;5.20;;;;;;;;;;5135544;27;20057;-68
2022/11/05 15:54:39;;;;;;;13.60;4.55;;;;;;;;;;5135494;27;20039;-68
2022/11/05 15:57:14;;;;;;;9.32;4.60;;;;;;;;;;5142291;27;20047;-67
2022/11/05 15:59:40;;;;;;;9.30;4.95;;;;;;;;;;5140062;27;20047;-68
2022/11/05 16:02:15;;;;;;;6.38;4.13;;;;;;;;;;5138794;27;20031;-68
2022/11/05 16:04:45;;;;;;;7.10;4.38;;;;;;;;;;5125514;27;20061;-66
2022/11/05 16:07:11;;;;;;;7.68;4.57;;;;;;;;;;5145529;27;20369;-67
2022/11/05 16:09:39;;;;;;;8.77;4.40;;;;;;;;;;5144562;27;20039;-66
2022/11/05 16:12:22;;;;;;;11.10;4.47;;;;;;;;;;5148942;27;20039;-66
2022/11/05 16:15:17;;;;;;;8.18;4.43;;;;;;;;;;5144848;27;20061;-67
2022/11/05 16:17:46;;;;;;;6.97;3.53;;;;;;;;;;5142751;27;20054;-67
2022/11/05 16:20:23;;;;;;;9.85;4.50;;;;;;;;;;5139898;27;20047;-67
2022/11/05 16:22:51;;;;;;;8.07;4.35;;;;;;;;;;5140366;27;20054;-67
2022/11/05 16:25:36;;;;;;;9.27;4.65;;;;;;;;;;5136834;27;20239;-67
2022/11/05 16:28:03;;;;;;;9.68;4.35;;;;;;;;;;5122606;27;21238;-67
2022/11/05 16:30:29;;;;;;;12.00;4.70;;;;;;;;;;5125466;27;20070;-67
2022/11/05 16:33:02;;;;;;;9.48;4.70;;;;;;;;;;5127899;27;20058;-67
2022/11/05 16:35:28;;;;;;;9.77;5.53;;;;;;;;;;5104809;27;20096;-66
2022/11/05 16:37:54;;;;;;;14.23;6.40;;;;;;;;;;5123272;27;20088;-67
2022/11/05 16:40:22;;;;;;;13.68;6.22;;;;;;;;;;5126929;27;20051;-67
2022/11/05 16:42:50;;;;;;;8.00;5.97;;;;;;;;;;5126324;27;20047;-66
2022/11/05 16:45:17;;;;;;;11.02;5.20;;;;;;;;;;5127587;27;20066;-68
2022/11/05 16:47:43;;;;;;;8.50;5.55;;;;;;;;;;5126144;27;20047;-67
2022/11/05 16:50:15;;;;;;;9.82;5.22;;;;;;;;;;5124043;27;21227;-67
2022/11/05 16:52:41;;;;;;;10.20;5.15;;;;;;;;;;5124843;27;20067;-66
2022/11/05 16:55:08;;;;;;;12.35;6.22;;;;;;;;;;5117381;27;20063;-66
2022/11/05 16:57:34;;;;;;;11.27;6.68;;;;;;;;;;5119487;27;21137;-66
2022/11/05 17:00:00;;;;;;;12.98;4.72;;;;;;;;;;5117336;27;20159;-66
2022/11/05 17:02:26;;;;;;;7.90;5.45;;;;;;;;;;5123787;27;20459;-67
2022/11/05 17:04:52;;;;;;;10.68;5.80;;;;;;;;;;5120269;27;20043;-67
2022/11/05 17:07:19;;;;;;;13.85;5.85;;;;;;;;;;5126008;27;20616;-67
2022/11/05 17:09:45;;;;;;;10.18;6.15;;;;;;;;;;5119303;27;20079;-67
2022/11/05 17:12:11;;;;;;;9.77;6.20;;;;;;;;;;5124768;27;20066;-68
2022/11/05 17:14:37;;;;;;;13.55;6.80;;;;;;;;;;5122119;27;20072;-66
2022/11/05 17:17:04;;;;;;;8.82;5.60;;;;;;;;;;5122226;27;20490;-68
2022/11/05 17:19:30;;;;;;;10.63;6.50;;;;;;;;;;5122577;27;20953;-67
2022/11/05 17:21:56;;;;;;;13.95;6.38;;;;;;;;;;5118255;27;20124;-67
2022/11/05 17:24:22;;;;;;;12.23;7.68;;;;;;;;;;5104659;27;20100;-69
2022/11/05 17:26:49;;;;;;;9.02;6.60;;;;;;;;;;5116345;27;23296;-69
2022/11/05 17:29:15;;;;;;;11.65;6.10;;;;;;;;;;5121079;27;20068;-69
2022/11/05 17:31:41;;;;;;;12.55;6.90;;;;;;;;;;5100344;27;22961;-69
2022/11/05 17:34:08;;;;;;;11.65;5.97;;;;;;;;;;5117451;27;20043;-69
2022/11/05 17:36:34;;;;;;;10.52;5.43;;;;;;;;;;5123308;27;20504;-68
2022/11/05 17:39:00;;;;;;;13.23;7.03;;;;;;;;;;5102937;27;20141;-67
2022/11/05 17:41:27;;;;;;;11.65;6.57;;;;;;;;;;5120039;27;20100;-67
2022/11/05 17:43:54;;;;;;;15.25;7.38;;;;;;;;;;5102032;27;20422;-67
2022/11/05 17:46:20;;;;;;;9.90;6.43;;;;;;;;;;5119227;27;20106;-68
2022/11/05 17:48:46;;;;;;;13.68;7.88;;;;;;;;;;5120545;27;20120;-68
2022/11/05 17:51:17;;;;;;;14.30;7.55;;;;;;;;;;5118400;27;20070;-68
2022/11/05 17:53:43;;;;;;;12.07;7.30;;;;;;;;;;5101336;27;20062;-68
2022/11/05 17:56:10;;;;;;;13.38;7.40;;;;;;;;;;5121366;27;20047;-67
2022/11/05 17:58:37;;;;;;;13.57;6.75;;;;;;;;;;5120591;27;20047;-67
2022/11/05 18:01:03;;;;;;;12.48;6.93;;;;;;;;;;5116047;27;20043;-69
2022/11/05 18:03:29;;;;;;;13.27;7.30;;;;;;;;;;5101508;27;20043;-68
2022/11/05 18:06:02;;;;;;;13.63;6.55;;;;;;;;;;5100295;27;20055;-67
2022/11/05 18:08:28;;;;;;;11.68;7.60;;;;;;;;;;5101574;27;20066;-68
2022/11/05 18:10:54;;;;;;;11.82;6.43;;;;;;;;;;5098358;27;20043;-67
2022/11/05 18:13:20;;;;;;;9.52;7.10;;;;;;;;;;5118681;27;20046;-67
2022/11/05 18:15:46;;;;;;;12.52;8.00;;;;;;;;;;5118746;27;20087;-67
2022/11/05 18:18:13;;;;;;;15.63;8.38;;;;;;;;;;5118994;27;20091;-67
2022/11/05 18:20:39;;;;;;;13.32;7.88;;;;;;;;;;5099470;27;20074;-67
2022/11/05 18:23:05;;;;;;;10.95;7.47;;;;;;;;;;5120085;27;20047;-68
2022/11/05 18:25:31;;;;;;;14.48;8.18;;;;;;;;;;5118171;27;20050;-67
2022/11/05 18:27:57;;;;;;;15.88;8.07;;;;;;;;;;5121493;27;20488;-67
2022/11/05 18:30:23;;;;;;;13.40;8.70;;;;;;;;;;5118035;27;20277;-68
2022/11/05 18:32:49;;;;;;;19.63;7.90;;;;;;;;;;5117583;27;20043;-68
2022/11/05 18:35:16;;;;;;;18.48;9.00;;;;;;;;;;5114001;27;20066;-68
2022/11/05 18:37:42;;;;;;;17.13;9.07;;;;;;;;;;5118871;27;20062;-68
2022/11/05 18:40:08;;;;;;;14.48;8.80;;;;;;;;;;5120983;27;20051;-68
2022/11/05 18:42:35;;;;;;;13.88;8.52;;;;;;;;;;5118494;27;20115;-68
2022/11/05 18:45:01;;;;;;;14.10;8.68;;;;;;;;;;5118204;27;20073;-68
2022/11/05 18:47:27;;;;;;;11.88;6.95;;;;;;;;;;5116569;27;22302;-68
2022/11/05 18:49:53;;;;;;;10.43;7.55;;;;;;;;;;5120649;27;20122;-68
2022/11/05 18:52:19;;;;;;;10.60;7.57;;;;;;;;;;5118651;27;20039;-68
2022/11/05 18:54:45;;;;;;;10.75;8.18;;;;;;;;;;5118353;27;20046;-68
2022/11/05 18:57:11;;;;;;;14.50;8.88;;;;;;;;;;5086661;27;20119;-68
2022/11/05 18:59:38;;;;;;;11.85;7.82;;;;;;;;;;5115819;27;20129;-68
2022/11/05 19:02:04;;;;;;;11.25;8.65;;;;;;;;;;5102799;27;20613;-68
2022/11/05 19:04:30;;;;;;;14.30;7.93;;;;;;;;;;5099349;27;20153;-68
2022/11/05 19:06:56;;;;;;;15.50;7.97;;;;;;;;;;5116741;27;20115;-68
2022/11/05 19:09:22;;;;;;;13.52;8.35;;;;;;;;;;5114712;27;20051;-69
2022/11/05 19:11:48;;;;;;;14.63;8.80;;;;;;;;;;5115986;27;20054;-68
2022/11/05 19:14:14;;;;;;;12.98;7.97;;;;;;;;;;5117541;27;20076;-68
2022/11/05 19:16:40;;;;;;;16.73;8.38;;;;;;;;;;5111070;27;20059;-68
2022/11/05 19:19:06;;;;;;;14.15;9.25;;;;;;;;;;5113658;27;20110;-67
2022/11/05 19:21:33;;;;;;;11.63;8.23;;;;;;;;;;5108753;27;20034;-68
2022/11/05 19:24:00;;;;;;;13.38;7.97;;;;;;;;;;5107828;27;20424;-68
2022/11/05 19:26:26;;;;;;;16.65;8.02;;;;;;;;;;5089485;27;20047;-68
2022/11/05 19:28:52;;;;;;;11.30;7.63;;;;;;;;;;5119918;27;20051;-68
2022/11/05 19:31:20;;;;;;;13.75;8.68;;;;;;;;;;5118438;27;20103;-70
2022/11/05 19:33:47;;;;;;;15.80;8.75;;;;;;;;;;5123350;27;21183;-70
2022/11/05 19:36:14;;;;;;;14.63;7.70;;;;;;;;;;5120888;27;20130;-69
2022/11/05 19:38:40;;;;;;;14.73;8.43;;;;;;;;;;5121087;27;20636;-70
2022/11/05 19:41:07;;;;;;;18.35;8.27;;;;;;;;;;5124425;27;20050;-68
2022/11/05 19:43:34;;;;;;;13.20;8.05;;;;;;;;;;5121377;27;20039;-67
2022/11/05 19:46:00;;;;;;;15.70;8.38;;;;;;;;;;5124151;27;20043;-69
2022/11/05 19:48:26;;;;;;;13.80;8.77;;;;;;;;;;5120270;27;20119;-70
2022/11/05 19:50:53;;;;;;;17.20;8.98;;;;;;;;;;5120957;27;20046;-70
2022/11/05 19:53:19;;;;;;;15.40;8.73;;;;;;;;;;5125440;27;20042;-70
2022/11/05 19:55:45;;;;;;;13.00;8.40;;;;;;;;;;5120691;27;20053;-69
2022/11/05 19:58:11;;;;;;;15.43;8.95;;;;;;;;;;5107632;27;20062;-69
2022/11/05 20:00:38;;;;;;;14.40;8.35;;;;;;;;;;5120451;27;21503;-70
2022/11/05 20:03:04;;;;;;;14.70;8.85;;;;;;;;;;5096217;27;20042;-69
2022/11/05 20:05:31;;;;;;;12.02;7.55;;;;;;;;;;5123869;27;20070;-68
2022/11/05 20:07:57;;;;;;;11.18;7.15;;;;;;;;;;5124121;27;20086;-69
2022/11/05 20:10:23;;;;;;;15.32;8.98;;;;;;;;;;5110271;27;20074;-69
2022/11/05 20:12:49;;;;;;;14.55;9.00;;;;;;;;;;5119531;27;20043;-70
2022/11/05 20:15:17;;;;;;;10.30;8.38;;;;;;;;;;5122221;27;20056;-69
2022/11/05 20:17:47;;;;;;;12.85;7.72;;;;;;;;;;5099744;27;20061;-70
2022/11/05 20:20:13;;;;;;;13.02;8.15;;;;;;;;;;5101401;27;20051;-70
2022/11/05 20:22:39;;;;;;;11.52;7.80;;;;;;;;;;5121485;27;20047;-70
2022/11/05 20:25:06;;;;;;;18.15;7.85;;;;;;;;;;5124165;27;20049;-70
2022/11/05 20:27:32;;;;;;;15.07;8.90;;;;;;;;;;5119632;27;20055;-71
2022/11/05 20:29:58;;;;;;;16.60;8.32;;;;;;;;;;5086126;27;20591;-71
2022/11/05 20:32:26;;;;;;;15.27;8.57;;;;;;;;;;5107153;27;22901;-69
2022/11/05 20:34:52;;;;;;;16.50;7.97;;;;;;;;;;5103726;27;20577;-70
2022/11/05 20:37:18;;;;;;;9.55;7.90;;;;;;;;;;5129507;27;20039;-70
2022/11/05 20:39:45;;;;;;;24.85;8.50;;;;;;;;;;5131600;27;20133;-69
2022/11/05 20:42:11;;;;;;;16.00;8.50;;;;;;;;;;5130542;27;20050;-69
2022/11/05 20:44:37;;;;;;;16.30;9.10;;;;;;;;;;5129246;27;20114;-68
2022/11/05 20:47:03;;;;;;;15.77;8.50;;;;;;;;;;5096448;27;20042;-69
2022/11/05 20:49:29;;;;;;;13.95;8.32;;;;;;;;;;5129238;27;23031;-70
2022/11/05 20:51:56;;;;;;;11.25;7.93;;;;;;;;;;5089831;27;20038;-70
2022/11/05 20:54:22;;;;;;;23.00;8.45;;;;;;;;;;5120747;27;20132;-70
2022/11/05 20:56:48;;;;;;;11.75;7.20;;;;;;;;;;5104069;27;22482;-69
2022/11/05 20:59:14;;;;;;;13.38;8.02;;;;;;;;;;5115381;27;20506;-70
2022/11/05 21:01:41;;;;;;;10.00;6.18;;;;;;;;;;5115825;27;20057;-70
2022/11/05 21:04:07;;;;;;;13.30;7.07;;;;;;;;;;5087151;27;20066;-71
2022/11/05 21:06:34;;;;;;;13.60;7.85;;;;;;;;;;5116945;27;20122;-69
2022/11/05 21:09:01;;;;;;;13.88;6.85;;;;;;;;;;5116218;27;20144;-70
2022/11/05 21:11:27;;;;;;;13.02;7.88;;;;;;;;;;5116290;27;20043;-69
2022/11/05 21:13:53;;;;;;;15.00;8.18;;;;;;;;;;5103238;27;20087;-69
2022/11/05 21:16:20;;;;;;;14.50;7.35;;;;;;;;;;5114878;27;20087;-69
2022/11/05 21:18:46;;;;;;;15.73;8.00;;;;;;;;;;5113427;27;20067;-69
2022/11/05 21:21:17;;;;;;;11.48;7.18;;;;;;;;;;5113347;27;20072;-68
2022/11/05 21:23:43;;;;;;;8.43;6.13;;;;;;;;;;5126155;27;20074;-69
2022/11/05 21:26:11;;;;;;;18.70;7.97;;;;;;;;;;5120428;27;20042;-69
2022/11/05 21:28:39;;;;;;;16.23;7.75;;;;;;;;;;5127359;27;20121;-69
2022/11/05 21:31:05;;;;;;;12.80;7.53;;;;;;;;;;5124923;27;20046;-69
2022/11/05 21:33:32;;;;;;;13.98;7.93;;;;;;;;;;5124518;27;20042;-70
2022/11/05 21:35:58;;;;;;;10.30;6.78;;;;;;;;;;5104091;27;20055;-69
2022/11/05 21:38:25;;;;;;;12.57;7.95;;;;;;;;;;5118073;27;20046;-70
2022/11/05 21:40:51;;;;;;;10.73;6.47;;;;;;;;;;5124615;27;20076;-69
2022/11/05 21:43:17;;;;;;;8.73;6.13;;;;;;;;;;5120119;27;20111;-69
2022/11/05 21:45:44;;;;;;;12.85;6.88;;;;;;;;;;5125250;27;21288;-67
2022/11/05 21:48:11;;;;;;;11.65;6.60;;;;;;;;;;5115436;27;20152;-66
2022/11/05 22:01:46;;;;;;;12.48;7.20;;;;;;;;;;5105469;27;20034;-68
2022/11/05 22:04:12;;;;;;;9.23;6.07;;;;;;;;;;5122167;27;20051;-67
2022/11/05 22:06:38;;;;;;;10.20;6.50;;;;;;;;;;5106032;27;20689;-70
2022/11/05 22:09:05;;;;;;;9.68;6.22;;;;;;;;;;5121908;27;20061;-70
2022/11/05 22:11:34;;;;;;;12.07;6.72;;;;;;;;;;5122206;27;20074;-68
2022/11/05 22:14:01;;;;;;;9.82;6.15;;;;;;;;;;5120245;27;20045;-68
2022/11/05 22:16:27;;;;;;;10.32;6.88;;;;;;;;;;5121089;27;20055;-67
2022/11/05 22:18:56;;;;;;;13.00;6.47;;;;;;;;;;5118080;27;20074;-67
2022/11/05 22:21:22;;;;;;;12.32;6.07;;;;;;;;;;5099793;27;20049;-68
2022/11/05 22:23:48;;;;;;;7.90;6.00;;;;;;;;;;5120450;27;20104;-69
2022/11/05 22:26:15;;;;;;;26.38;10.00;;;;;;;;;;5125245;27;20085;-69
2022/11/05 22:28:41;;;;;;;9.27;4.90;;;;;;;;;;5121724;27;20051;-69
2022/11/05 22:31:14;;;;;;;9.30;6.00;;;;;;;;;;5121935;27;20043;-68
2022/11/05 22:33:40;;;;;;;12.82;6.20;;;;;;;;;;5124182;27;20149;-68
2022/11/05 22:36:06;;;;;;;11.02;6.65;;;;;;;;;;5121297;27;20051;-68
2022/11/05 22:38:32;;;;;;;8.07;5.15;;;;;;;;;;5122235;27;20039;-68
2022/11/05 22:40:58;;;;;;;10.35;5.65;;;;;;;;;;5120249;27;20065;-68
2022/11/05 22:43:24;;;;;;;9.75;6.18;;;;;;;;;;5115744;27;20050;-68
2022/11/05 22:45:50;;;;;;;8.40;5.43;;;;;;;;;;5119067;27;20057;-68
2022/11/05 22:48:17;;;;;;;11.60;5.80;;;;;;;;;;5116881;27;20076;-68
2022/11/05 22:50:43;;;;;;;11.55;6.07;;;;;;;;;;5118167;27;20054;-67
2022/11/05 22:53:09;;;;;;;8.13;4.63;;;;;;;;;;5119942;27;20107;-68
2022/11/05 22:55:38;;;;;;;10.52;5.53;;;;;;;;;;5116802;27;20081;-68
2022/11/05 22:58:04;;;;;;;10.95;5.60;;;;;;;;;;5119617;27;20687;-68
2022/11/05 23:00:35;;;;;;;9.93;5.50;;;;;;;;;;5117457;27;20043;-68
2022/11/05 23:03:01;;;;;;;8.32;5.60;;;;;;;;;;5102560;27;20051;-68
2022/11/05 23:05:27;;;;;;;9.52;6.10;;;;;;;;;;5116946;27;20106;-68
2022/11/05 23:13:24;;;;;;;13.13;5.68;;;;;;;;;;5117218;27;20047;-68
2022/11/05 23:24:05;;;;;;;11.85;5.28;;;;;;;;;;5120913;27;20035;-68
2022/11/05 23:26:49;;;;;;;17.77;4.93;;;;;;;;;;5119867;27;20064;-69
2022/11/05 23:29:16;;;;;;;12.00;5.97;;;;;;;;;;5122724;27;20050;-69
2022/11/05 23:34:28;;;;;;;8.75;5.25;;;;;;;;;;5120414;27;20130;-68
2022/11/05 23:39:38;;;;;;;9.57;4.93;;;;;;;;;;5122808;27;20096;-69
2022/11/05 23:50:19;;;;;;;9.65;5.95;;;;;;;;;;5103718;27;20088;-69
2022/11/05 23:52:45;;;;;;;7.72;4.65;;;;;;;;;;5105324;27;20039;-69
2022/11/05 23:55:11;;;;;;;11.07;6.10;;;;;;;;;;5121230;27;20051;-68
2022/11/05 23:57:37;;;;;;;12.68;5.85;;;;;;;;;;5125172;27;20062;-69
